CheckWX is a tool to help pilots better visualize weather data.  It is not intended as a substitute for an official pre-flight weather briefing.

08:11:35 UTC

KELD METAR
South Arkansas Regional at Goodwin Field Airport
El Dorado, Arkansas, USA
Current

19 mins ago

KELD 220753Z AUTO 04006KT 10SM OVC008 07/06 A3006 RMK AO2 LTG DSNT W CIG 004V011 SLP180 T00670061
Observed
Feb-22 @ 07:53 UTC
Wind
  • 040° at 6 KTS
Visibility
10 SM
Flight Rules
IFR
Cloud Levels
  • Overcast at 800' AGL
Temperature
C / 45°F
Dewpoint
C / 43°F
Humidity
93%
Altimeter
30.06" Hg
Pressure
1018 hPa
Previous

51 mins ago

KELD 220721Z AUTO 04004KT 10SM OVC009 07/06 A3007 RMK AO2 CIG 007V013 T00670061
Observed
Feb-22 @ 07:21 UTC
Wind
  • 040° at 4 KTS
Visibility
10 SM
Flight Rules
IFR
Cloud Levels
  • Overcast at 900' AGL
Temperature
C / 45°F
Dewpoint
C / 43°F
Humidity
93%
Altimeter
30.07" Hg
Pressure
1018.32 hPa
Previous

1 hour ago

KELD 220653Z AUTO 03005KT 10SM OVC010 07/06 A3007 RMK AO2 CIG 008V013 SLP181 T00670061
Observed
Feb-22 @ 06:53 UTC
Wind
  • 030° at 5 KTS
Visibility
10 SM
Flight Rules
MVFR
Cloud Levels
  • Overcast at 1,000' AGL
Temperature
C / 45°F
Dewpoint
C / 43°F
Humidity
93%
Altimeter
30.07" Hg
Pressure
1018.1 hPa